Time;durP1;ratioP1;P1;durP2;ratioP2;P2;SDS_P1;SDS_P2;PMS_P1;PMS_P2;Temp;Humidity;BMP_temperature;BMP_pressure;BME280_temperature;BME280_humidity;BME280_pressure;Samples;Min_cycle;Max_cycle;Signal;HPM_P1;HPM_P2
2023/12/20 00:00:58;;;;;;;4.45;1.52;;;;;;;;;;5000485;28;92711;-79
2023/12/20 00:03:25;;;;;;;6.00;1.73;;;;;;;;;;5019568;28;95073;-79
2023/12/20 00:05:52;;;;;;;4.28;1.73;;;;;;;;;;5004129;28;92321;-78
2023/12/20 00:08:18;;;;;;;5.50;1.90;;;;;;;;;;5001289;28;92688;-78
2023/12/20 00:10:45;;;;;;;3.88;1.60;;;;;;;;;;5007004;28;95119;-78
2023/12/20 00:13:11;;;;;;;4.78;1.60;;;;;;;;;;4995907;28;92131;-78
2023/12/20 00:15:38;;;;;;;5.60;1.67;;;;;;;;;;5017217;28;92808;-79
2023/12/20 00:18:05;;;;;;;3.92;1.67;;;;;;;;;;5004025;28;98750;-80
2023/12/20 00:20:31;;;;;;;4.70;1.73;;;;;;;;;;5006427;28;93723;-79
2023/12/20 00:22:58;;;;;;;5.50;1.70;;;;;;;;;;5003349;28;92773;-78
2023/12/20 00:25:24;;;;;;;4.25;1.73;;;;;;;;;;5003229;28;92355;-79
2023/12/20 00:27:51;;;;;;;5.32;1.73;;;;;;;;;;4986209;28;92485;-78
2023/12/20 00:30:18;;;;;;;5.13;1.90;;;;;;;;;;5018597;28;92140;-78
2023/12/20 00:32:46;;;;;;;6.63;2.17;;;;;;;;;;5009656;28;92151;-78
2023/12/20 00:35:13;;;;;;;5.95;1.80;;;;;;;;;;5006337;28;94918;-77
2023/12/20 00:37:40;;;;;;;7.10;2.20;;;;;;;;;;5012750;28;93064;-78
2023/12/20 00:40:07;;;;;;;6.65;2.15;;;;;;;;;;4996722;28;92273;-78
2023/12/20 00:42:33;;;;;;;7.07;1.90;;;;;;;;;;5024819;28;94678;-77
2023/12/20 00:45:00;;;;;;;6.88;2.17;;;;;;;;;;5013386;28;92366;-79
2023/12/20 00:47:26;;;;;;;8.20;2.13;;;;;;;;;;5003554;28;92926;-81
2023/12/20 00:49:54;;;;;;;5.95;2.13;;;;;;;;;;5000766;28;95414;-81
2023/12/20 00:52:22;;;;;;;7.28;2.47;;;;;;;;;;5003484;28;91956;-81
2023/12/20 00:54:49;;;;;;;7.28;2.47;;;;;;;;;;5001358;28;94412;-81
2023/12/20 00:57:15;;;;;;;8.48;2.85;;;;;;;;;;4992024;28;95624;-79
2023/12/20 00:59:42;;;;;;;9.75;3.70;;;;;;;;;;5000561;28;94477;-79
2023/12/20 01:02:09;;;;;;;15.60;4.10;;;;;;;;;;5003456;28;94812;-80
2023/12/20 01:04:36;;;;;;;10.20;3.85;;;;;;;;;;5021484;28;93046;-80
2023/12/20 01:07:05;;;;;;;10.98;3.72;;;;;;;;;;5001865;28;95182;-79
2023/12/20 01:09:32;;;;;;;10.35;4.13;;;;;;;;;;5015634;28;93916;-80
2023/12/20 01:11:58;;;;;;;10.52;3.50;;;;;;;;;;5006756;28;92191;-80
2023/12/20 01:14:25;;;;;;;12.55;3.90;;;;;;;;;;5018610;28;97925;-80
2023/12/20 01:16:52;;;;;;;8.55;3.28;;;;;;;;;;5003702;28;91917;-80
2023/12/20 01:19:19;;;;;;;10.50;3.75;;;;;;;;;;5001437;28;93045;-79
2023/12/20 01:21:45;;;;;;;8.68;3.42;;;;;;;;;;5002430;28;92424;-79
2023/12/20 01:24:12;;;;;;;10.73;3.72;;;;;;;;;;5015945;28;95077;-79
2023/12/20 01:26:39;;;;;;;10.00;3.50;;;;;;;;;;5019473;28;92690;-79
2023/12/20 01:29:05;;;;;;;8.98;3.20;;;;;;;;;;5003059;28;92738;-78
2023/12/20 01:31:32;;;;;;;9.60;3.20;;;;;;;;;;4994327;28;92074;-79
2023/12/20 01:33:58;;;;;;;10.43;3.20;;;;;;;;;;5003393;28;92845;-80
2023/12/20 01:36:25;;;;;;;7.90;2.72;;;;;;;;;;5022765;28;97993;-79
2023/12/20 01:38:51;;;;;;;8.90;3.20;;;;;;;;;;5015713;27;92191;-79
2023/12/20 01:41:18;;;;;;;8.82;3.05;;;;;;;;;;5001899;28;94438;-79
2023/12/20 01:43:45;;;;;;;9.48;2.97;;;;;;;;;;5002539;28;92814;-79
2023/12/20 01:46:18;;;;;;;9.18;2.85;;;;;;;;;;5002378;28;92230;-80
2023/12/20 01:48:48;;;;;;;11.05;2.80;;;;;;;;;;5004389;28;94338;-80
2023/12/20 01:51:15;;;;;;;9.50;2.65;;;;;;;;;;5003149;28;92086;-79
2023/12/20 01:53:42;;;;;;;7.20;2.72;;;;;;;;;;5001251;28;92381;-78
2023/12/20 01:56:09;;;;;;;7.97;2.58;;;;;;;;;;5001504;28;92798;-78
2023/12/20 01:58:39;;;;;;;7.35;2.85;;;;;;;;;;5017741;27;92521;-79
2023/12/20 02:01:05;;;;;;;8.13;2.60;;;;;;;;;;4984745;28;94780;-80
2023/12/20 02:03:32;;;;;;;7.85;2.70;;;;;;;;;;5015625;28;92726;-80
2023/12/20 02:05:59;;;;;;;7.47;2.55;;;;;;;;;;5005081;28;91837;-79
2023/12/20 02:08:25;;;;;;;9.30;2.58;;;;;;;;;;5005190;28;96523;-79
2023/12/20 02:10:52;;;;;;;7.47;2.50;;;;;;;;;;5002925;28;92101;-81
2023/12/20 02:13:18;;;;;;;7.45;2.15;;;;;;;;;;5010415;28;95208;-80
2023/12/20 02:15:45;;;;;;;7.25;2.40;;;;;;;;;;5020494;28;93462;-79
2023/12/20 02:18:15;;;;;;;7.85;2.20;;;;;;;;;;5002346;28;92502;-80
2023/12/20 02:20:42;;;;;;;6.80;2.33;;;;;;;;;;5000645;28;93944;-80
2023/12/20 02:23:08;;;;;;;8.50;2.58;;;;;;;;;;5000684;28;95467;-79
2023/12/20 02:25:35;;;;;;;6.80;2.28;;;;;;;;;;5001818;28;95894;-80
2023/12/20 02:28:02;;;;;;;7.80;2.40;;;;;;;;;;5001991;28;92998;-80
2023/12/20 02:30:28;;;;;;;9.35;2.40;;;;;;;;;;5007938;28;92339;-80
2023/12/20 02:32:55;;;;;;;9.13;2.40;;;;;;;;;;5004465;28;94422;-79
2023/12/20 02:35:22;;;;;;;7.32;2.08;;;;;;;;;;5021390;28;92739;-79
2023/12/20 02:37:49;;;;;;;8.93;2.28;;;;;;;;;;5018359;27;94522;-79
2023/12/20 02:40:15;;;;;;;8.50;2.58;;;;;;;;;;5011700;27;94903;-80
2023/12/20 02:42:42;;;;;;;7.43;2.30;;;;;;;;;;5020972;28;92240;-78
2023/12/20 02:45:09;;;;;;;6.03;2.03;;;;;;;;;;5021754;28;92145;-79
2023/12/20 02:47:35;;;;;;;7.82;2.00;;;;;;;;;;5021537;28;92515;-80
2023/12/20 02:50:02;;;;;;;7.00;2.00;;;;;;;;;;5021421;28;93694;-79
2023/12/20 02:52:29;;;;;;;8.05;2.13;;;;;;;;;;5023613;28;92102;-79
2023/12/20 02:54:56;;;;;;;6.53;2.00;;;;;;;;;;5020633;28;94508;-80
2023/12/20 02:57:22;;;;;;;6.53;2.00;;;;;;;;;;5022099;28;92281;-80
2023/12/20 02:59:49;;;;;;;6.80;2.00;;;;;;;;;;5020298;28;92555;-80
2023/12/20 03:02:15;;;;;;;7.13;2.20;;;;;;;;;;5019719;27;95972;-81
2023/12/20 03:04:42;;;;;;;7.55;2.03;;;;;;;;;;5021901;28;92528;-81
2023/12/20 03:07:09;;;;;;;8.00;1.90;;;;;;;;;;5021373;28;92622;-80
2023/12/20 03:09:35;;;;;;;5.95;1.90;;;;;;;;;;5006995;28;94871;-80
2023/12/20 03:12:22;;;;;;;6.45;1.73;;;;;;;;;;5017618;28;92199;-80
2023/12/20 03:14:49;;;;;;;7.38;2.00;;;;;;;;;;5003382;28;92678;-79
2023/12/20 03:17:16;;;;;;;6.90;1.80;;;;;;;;;;5012218;28;92231;-80
2023/12/20 03:19:42;;;;;;;7.78;2.00;;;;;;;;;;5008049;28;92951;-80
2023/12/20 03:22:12;;;;;;;7.32;1.90;;;;;;;;;;5007775;27;95559;-82
2023/12/20 03:24:38;;;;;;;7.90;2.00;;;;;;;;;;5030234;28;92394;-79
2023/12/20 03:27:05;;;;;;;6.75;2.00;;;;;;;;;;5007602;28;95036;-79
2023/12/20 03:29:31;;;;;;;6.57;1.77;;;;;;;;;;5008627;28;92849;-79
2023/12/20 03:31:58;;;;;;;4.90;1.48;;;;;;;;;;5032745;28;92121;-79
2023/12/20 03:34:24;;;;;;;6.10;1.75;;;;;;;;;;5003789;28;92634;-78
2023/12/20 03:36:51;;;;;;;7.10;1.95;;;;;;;;;;5018843;27;92679;-78
2023/12/20 03:39:18;;;;;;;7.20;1.88;;;;;;;;;;4996763;28;94640;-80
2023/12/20 03:41:44;;;;;;;6.82;2.00;;;;;;;;;;5019202;28;92438;-80
2023/12/20 03:44:11;;;;;;;5.88;1.83;;;;;;;;;;5023279;27;91685;-80
2023/12/20 03:46:38;;;;;;;8.52;1.70;;;;;;;;;;5017968;28;92414;-81
2023/12/20 03:49:04;;;;;;;8.77;1.83;;;;;;;;;;5003668;28;93167;-80
2023/12/20 03:51:31;;;;;;;6.07;1.55;;;;;;;;;;5002057;28;94972;-80
2023/12/20 03:53:57;;;;;;;5.28;1.70;;;;;;;;;;5004917;28;94864;-80
2023/12/20 03:56:24;;;;;;;7.05;1.70;;;;;;;;;;5003705;28;92707;-79
2023/12/20 03:58:50;;;;;;;6.90;1.83;;;;;;;;;;5006644;28;91974;-80
2023/12/20 04:01:17;;;;;;;6.13;1.60;;;;;;;;;;5002719;28;95035;-79
2023/12/20 04:03:44;;;;;;;7.57;1.60;;;;;;;;;;5000882;28;92290;-80
2023/12/20 04:06:15;;;;;;;6.55;1.67;;;;;;;;;;5024109;28;92459;-80
2023/12/20 04:08:42;;;;;;;7.88;1.92;;;;;;;;;;5023178;28;94120;-79
2023/12/20 04:11:09;;;;;;;7.72;1.60;;;;;;;;;;5024076;27;92278;-79
2023/12/20 04:13:35;;;;;;;5.43;1.42;;;;;;;;;;5024305;27;93438;-77
2023/12/20 04:16:02;;;;;;;6.10;1.58;;;;;;;;;;5022288;28;95330;-79
2023/12/20 04:18:28;;;;;;;6.93;1.70;;;;;;;;;;5009363;28;92105;-80
2023/12/20 04:20:55;;;;;;;6.10;1.60;;;;;;;;;;5006388;28;95588;-79
2023/12/20 04:23:21;;;;;;;9.30;1.65;;;;;;;;;;5024545;28;92506;-80
2023/12/20 04:25:48;;;;;;;7.13;1.80;;;;;;;;;;5024166;28;92461;-80
2023/12/20 04:28:14;;;;;;;6.72;1.75;;;;;;;;;;5022879;28;93023;-80
2023/12/20 04:30:42;;;;;;;8.38;1.98;;;;;;;;;;5022210;28;92278;-80
2023/12/20 04:33:08;;;;;;;6.63;1.75;;;;;;;;;;5023519;28;92789;-78
2023/12/20 04:35:35;;;;;;;7.13;1.65;;;;;;;;;;5021586;28;95540;-79
2023/12/20 04:38:01;;;;;;;7.85;1.63;;;;;;;;;;5022357;27;92015;-79
2023/12/20 04:40:28;;;;;;;5.57;1.48;;;;;;;;;;5010158;28;94648;-78
2023/12/20 04:42:54;;;;;;;7.18;1.75;;;;;;;;;;5002313;28;92500;-79
2023/12/20 04:45:21;;;;;;;8.23;1.83;;;;;;;;;;5003318;28;92388;-79
2023/12/20 04:47:47;;;;;;;6.43;1.60;;;;;;;;;;5002706;28;92306;-79
2023/12/20 04:50:15;;;;;;;5.72;1.60;;;;;;;;;;5000880;28;92203;-79
2023/12/20 04:52:42;;;;;;;7.95;2.00;;;;;;;;;;5002981;28;93241;-79
2023/12/20 04:55:08;;;;;;;10.40;1.83;;;;;;;;;;5002219;28;93018;-79
2023/12/20 04:57:35;;;;;;;6.63;1.63;;;;;;;;;;5004385;28;91365;-79
2023/12/20 05:00:02;;;;;;;8.93;1.80;;;;;;;;;;5003019;28;93080;-80
2023/12/20 05:02:32;;;;;;;6.47;1.58;;;;;;;;;;5007111;28;92734;-79
2023/12/20 05:04:58;;;;;;;5.95;1.48;;;;;;;;;;5001203;28;94450;-79
2023/12/20 05:07:25;;;;;;;10.13;1.88;;;;;;;;;;5001649;28;100500;-78
2023/12/20 05:09:51;;;;;;;6.32;1.60;;;;;;;;;;5003206;28;92509;-79
2023/12/20 05:12:18;;;;;;;6.78;1.35;;;;;;;;;;5002706;28;92695;-79
2023/12/20 05:14:46;;;;;;;5.38;1.35;;;;;;;;;;5001681;28;95323;-80
2023/12/20 05:17:12;;;;;;;6.57;1.60;;;;;;;;;;5003476;28;92780;-79
2023/12/20 05:19:39;;;;;;;6.03;1.50;;;;;;;;;;5003525;28;92692;-79
2023/12/20 05:22:06;;;;;;;8.07;1.58;;;;;;;;;;4985196;28;94357;-79
2023/12/20 05:24:32;;;;;;;8.23;1.73;;;;;;;;;;5008689;27;92193;-79
2023/12/20 05:26:59;;;;;;;5.15;1.38;;;;;;;;;;5007124;28;92789;-79
2023/12/20 05:29:25;;;;;;;8.27;1.70;;;;;;;;;;5012076;28;94574;-79
2023/12/20 05:31:52;;;;;;;5.60;1.42;;;;;;;;;;5006265;28;94781;-79
2023/12/20 05:34:20;;;;;;;5.85;1.45;;;;;;;;;;5018105;28;93110;-79
2023/12/20 05:36:46;;;;;;;5.95;1.55;;;;;;;;;;5001814;28;92544;-79
2023/12/20 05:39:13;;;;;;;5.40;1.30;;;;;;;;;;5011877;28;92715;-79
2023/12/20 05:41:39;;;;;;;5.63;1.50;;;;;;;;;;5008747;27;93767;-79
2023/12/20 05:44:06;;;;;;;5.35;1.30;;;;;;;;;;5002616;27;92439;-79
2023/12/20 05:46:33;;;;;;;7.57;1.50;;;;;;;;;;5004690;28;92468;-79
2023/12/20 05:48:59;;;;;;;6.38;1.58;;;;;;;;;;5002892;27;92310;-78
2023/12/20 05:51:26;;;;;;;5.75;1.33;;;;;;;;;;5001624;28;95021;-79
2023/12/20 05:53:52;;;;;;;5.60;1.60;;;;;;;;;;5011613;28;97383;-79
2023/12/20 05:56:19;;;;;;;4.97;1.55;;;;;;;;;;5018159;28;92256;-78
2023/12/20 05:58:46;;;;;;;5.70;1.60;;;;;;;;;;4987558;28;94669;-79
2023/12/20 06:01:14;;;;;;;6.78;1.60;;;;;;;;;;5002020;28;93145;-78
2023/12/20 06:03:41;;;;;;;5.85;1.38;;;;;;;;;;5015306;28;92030;-79
2023/12/20 06:06:08;;;;;;;6.70;1.45;;;;;;;;;;5008608;28;92300;-79
2023/12/20 06:08:43;;;;;;;6.45;1.42;;;;;;;;;;5017272;27;93179;-79
2023/12/20 06:11:10;;;;;;;7.53;1.58;;;;;;;;;;5002141;28;98376;-79
2023/12/20 06:13:36;;;;;;;6.32;1.55;;;;;;;;;;5014792;28;95570;-80
2023/12/20 06:16:05;;;;;;;4.57;1.40;;;;;;;;;;5005796;28;92074;-79
2023/12/20 06:18:31;;;;;;;7.78;1.80;;;;;;;;;;5004585;28;94896;-79
2023/12/20 06:20:58;;;;;;;6.78;1.60;;;;;;;;;;5022211;28;92617;-79
2023/12/20 06:23:25;;;;;;;5.13;1.40;;;;;;;;;;5038637;28;92347;-80
2023/12/20 06:25:52;;;;;;;8.40;1.70;;;;;;;;;;5021221;28;95015;-80
2023/12/20 06:28:18;;;;;;;5.07;1.60;;;;;;;;;;5024703;28;92800;-80
2023/12/20 06:30:47;;;;;;;5.25;1.38;;;;;;;;;;5020657;28;95073;-79
2023/12/20 06:33:13;;;;;;;6.32;1.25;;;;;;;;;;5022287;28;92644;-80
2023/12/20 06:35:40;;;;;;;6.60;1.52;;;;;;;;;;5006718;28;93813;-80
2023/12/20 06:38:06;;;;;;;4.28;1.30;;;;;;;;;;5001342;28;92093;-80
2023/12/20 06:40:33;;;;;;;6.90;1.50;;;;;;;;;;4999308;28;95060;-79
2023/12/20 06:42:59;;;;;;;5.35;1.45;;;;;;;;;;5018879;28;94544;-79
2023/12/20 06:45:38;;;;;;;7.03;1.48;;;;;;;;;;5021239;28;94835;-80
2023/12/20 06:48:04;;;;;;;6.47;1.40;;;;;;;;;;4986969;28;95105;-79
2023/12/20 06:50:31;;;;;;;5.82;1.40;;;;;;;;;;5020683;28;92139;-80
2023/12/20 06:52:58;;;;;;;5.80;1.60;;;;;;;;;;5001051;28;93427;-80
2023/12/20 06:55:24;;;;;;;5.65;1.55;;;;;;;;;;5012641;28;92437;-79
2023/12/20 06:57:51;;;;;;;5.25;1.20;;;;;;;;;;5007345;27;92419;-80
2023/12/20 07:00:19;;;;;;;8.27;1.60;;;;;;;;;;5018177;28;92345;-80
2023/12/20 07:02:47;;;;;;;6.70;1.58;;;;;;;;;;4996886;28;92233;-80
2023/12/20 07:05:16;;;;;;;5.88;1.33;;;;;;;;;;4991869;28;92367;-79
2023/12/20 07:07:42;;;;;;;7.53;1.50;;;;;;;;;;5014189;28;95967;-79
2023/12/20 07:10:09;;;;;;;5.68;1.20;;;;;;;;;;5002700;28;92310;-80
2023/12/20 07:12:39;;;;;;;5.90;1.40;;;;;;;;;;5001329;28;94770;-79
2023/12/20 07:15:07;;;;;;;6.25;1.30;;;;;;;;;;5000561;28;92737;-78
2023/12/20 07:17:34;;;;;;;6.95;1.60;;;;;;;;;;5000439;28;94740;-79
2023/12/20 07:20:03;;;;;;;6.57;1.40;;;;;;;;;;4999737;28;92823;-79
2023/12/20 07:22:33;;;;;;;6.03;1.58;;;;;;;;;;5000775;28;92069;-79
2023/12/20 07:25:00;;;;;;;5.97;1.50;;;;;;;;;;5000969;28;91818;-78
2023/12/20 07:27:27;;;;;;;7.53;1.67;;;;;;;;;;5002022;28;92540;-78
2023/12/20 07:29:53;;;;;;;5.53;1.40;;;;;;;;;;5001670;28;92129;-79
2023/12/20 07:32:20;;;;;;;6.30;1.45;;;;;;;;;;4998604;27;94811;-79
2023/12/20 07:34:47;;;;;;;6.07;1.38;;;;;;;;;;5010717;28;92522;-78
2023/12/20 07:37:14;;;;;;;5.72;1.40;;;;;;;;;;5022089;28;93058;-78
2023/12/20 07:39:41;;;;;;;5.80;1.23;;;;;;;;;;5019962;28;94819;-78
2023/12/20 07:42:08;;;;;;;5.72;1.20;;;;;;;;;;5018939;28;92180;-79
2023/12/20 07:44:38;;;;;;;6.55;1.40;;;;;;;;;;5020036;28;93907;-79
2023/12/20 07:47:05;;;;;;;4.88;1.40;;;;;;;;;;5019401;28;93166;-78
2023/12/20 07:49:31;;;;;;;6.80;1.40;;;;;;;;;;5009004;27;91624;-78
2023/12/20 07:51:58;;;;;;;7.13;1.50;;;;;;;;;;5017549;28;92260;-78
2023/12/20 07:54:25;;;;;;;6.72;1.70;;;;;;;;;;4999492;28;97398;-77
2023/12/20 07:56:52;;;;;;;8.65;1.48;;;;;;;;;;5010066;28;94958;-78
2023/12/20 07:59:18;;;;;;;8.82;1.60;;;;;;;;;;5019287;28;93227;-78
2023/12/20 08:01:58;;;;;;;9.65;1.42;;;;;;;;;;4996278;28;92330;-79
2023/12/20 08:04:24;;;;;;;6.75;1.63;;;;;;;;;;5013997;28;92809;-78
2023/12/20 08:06:52;;;;;;;6.35;1.40;;;;;;;;;;5021609;28;92621;-78
2023/12/20 08:09:19;;;;;;;6.90;1.67;;;;;;;;;;5008216;28;92219;-79
2023/12/20 08:11:47;;;;;;;6.22;1.40;;;;;;;;;;5030546;28;94099;-78
2023/12/20 08:14:14;;;;;;;7.35;1.63;;;;;;;;;;5002041;28;92229;-79
2023/12/20 08:16:42;;;;;;;6.60;1.65;;;;;;;;;;5017662;27;92146;-79
2023/12/20 08:19:09;;;;;;;6.07;1.30;;;;;;;;;;5006801;28;92666;-81
2023/12/20 08:21:36;;;;;;;6.32;1.30;;;;;;;;;;4986207;28;94783;-80
2023/12/20 08:24:04;;;;;;;6.63;1.20;;;;;;;;;;5001889;27;97070;-79
2023/12/20 08:26:32;;;;;;;6.13;1.48;;;;;;;;;;5020960;28;95187;-78
2023/12/20 08:28:59;;;;;;;6.60;1.50;;;;;;;;;;5019641;28;92424;-79
2023/12/20 08:31:28;;;;;;;4.88;1.30;;;;;;;;;;5012157;28;92650;-79
2023/12/20 08:33:55;;;;;;;5.53;1.42;;;;;;;;;;5003904;28;92597;-79
2023/12/20 08:36:23;;;;;;;6.70;1.50;;;;;;;;;;5004000;28;92203;-79
2023/12/20 08:38:50;;;;;;;6.43;1.30;;;;;;;;;;5023728;28;91703;-80
2023/12/20 08:41:17;;;;;;;7.43;1.50;;;;;;;;;;4999186;28;92674;-80
2023/12/20 08:43:44;;;;;;;7.50;1.45;;;;;;;;;;4997259;28;92345;-79
2023/12/20 08:46:11;;;;;;;7.05;1.45;;;;;;;;;;5020194;28;95901;-77
2023/12/20 08:48:38;;;;;;;6.38;1.30;;;;;;;;;;5024059;28;92158;-77
2023/12/20 08:51:08;;;;;;;6.57;1.42;;;;;;;;;;5022850;28;94683;-78
2023/12/20 08:53:34;;;;;;;9.45;1.65;;;;;;;;;;5021681;28;92826;-78
2023/12/20 08:56:01;;;;;;;5.68;1.48;;;;;;;;;;5021525;28;92563;-77
2023/12/20 08:58:28;;;;;;;7.28;1.50;;;;;;;;;;5017793;28;92620;-77
2023/12/20 09:00:55;;;;;;;;;;;;;;;;;;5004764;28;92758;-78
2023/12/20 09:03:22;;;;;;;7.15;1.45;;;;;;;;;;4992000;28;95742;-79
2023/12/20 09:05:48;;;;;;;7.78;1.50;;;;;;;;;;4996937;28;92797;-78
2023/12/20 09:08:15;;;;;;;7.40;1.60;;;;;;;;;;4999216;28;99671;-78
2023/12/20 09:10:41;;;;;;;8.70;1.60;;;;;;;;;;4996271;28;95143;-78
2023/12/20 09:13:08;;;;;;;9.18;1.73;;;;;;;;;;5010300;28;94793;-78
2023/12/20 09:15:35;;;;;;;5.93;1.55;;;;;;;;;;5020234;28;92516;-78
2023/12/20 09:18:03;;;;;;;8.48;1.52;;;;;;;;;;5021203;27;92726;-78
2023/12/20 09:20:31;;;;;;;7.38;1.52;;;;;;;;;;5021113;27;93021;-78
2023/12/20 09:22:58;;;;;;;;;;;;;;;;;;5038483;27;92151;-79
2023/12/20 09:25:25;;;;;;;5.75;1.35;;;;;;;;;;5014116;28;94453;-79
2023/12/20 09:27:52;;;;;;;6.57;1.70;;;;;;;;;;5020571;28;91599;-78
2023/12/20 09:30:20;;;;;;;6.47;1.50;;;;;;;;;;5019084;28;92592;-78
2023/12/20 09:32:53;;;;;;;6.70;1.60;;;;;;;;;;5020803;28;93127;-77
2023/12/20 09:35:20;;;;;;;6.30;1.30;;;;;;;;;;5019256;28;95438;-76
2023/12/20 09:37:47;;;;;;;7.25;1.50;;;;;;;;;;5020720;28;94558;-77
2023/12/20 09:40:14;;;;;;;8.00;1.50;;;;;;;;;;5019298;27;92863;-78
2023/12/20 09:43:03;;;;;;;5.28;1.25;;;;;;;;;;5022236;27;92088;-78
2023/12/20 09:45:30;;;;;;;7.45;1.33;;;;;;;;;;5024584;27;92784;-78
2023/12/20 09:47:57;;;;;;;7.07;1.50;;;;;;;;;;5017583;28;92765;-78
2023/12/20 09:50:24;;;;;;;6.32;1.50;;;;;;;;;;5000936;28;92455;-78
2023/12/20 09:52:51;;;;;;;7.20;1.48;;;;;;;;;;5018712;28;91948;-77
2023/12/20 09:55:18;;;;;;;;;;;;;;;;;;5022345;28;92243;-79
2023/12/20 09:57:49;;;;;;;7.63;1.60;;;;;;;;;;5023470;28;97650;-78
2023/12/20 10:00:17;;;;;;;6.38;1.50;;;;;;;;;;5019296;28;95130;-77
2023/12/20 10:02:56;;;;;;;7.78;1.60;;;;;;;;;;4997574;28;92124;-77
2023/12/20 10:05:26;;;;;;;6.15;1.30;;;;;;;;;;5012584;28;93147;-78
2023/12/20 10:07:53;;;;;;;5.60;1.27;;;;;;;;;;5006787;28;95198;-77
2023/12/20 10:10:19;;;;;;;7.10;1.52;;;;;;;;;;5019350;28;92642;-77
2023/12/20 10:13:01;;;;;;;6.05;1.30;;;;;;;;;;5021325;28;93238;-78
2023/12/20 10:15:27;;;;;;;8.25;1.55;;;;;;;;;;5021161;28;92013;-78
2023/12/20 10:17:54;;;;;;;4.40;1.15;;;;;;;;;;5019886;28;95296;-78
2023/12/20 10:20:26;;;;;;;8.70;1.70;;;;;;;;;;5019932;28;98053;-78
2023/12/20 10:22:55;;;;;;;7.70;1.33;;;;;;;;;;5020538;28;92142;-78
2023/12/20 10:25:22;;;;;;;6.22;1.52;;;;;;;;;;5020199;28;94623;-78
2023/12/20 10:27:49;;;;;;;4.90;1.50;;;;;;;;;;5024770;28;92778;-78
2023/12/20 10:30:16;;;;;;;5.25;1.27;;;;;;;;;;5018984;28;94838;-79
2023/12/20 10:32:43;;;;;;;5.68;1.48;;;;;;;;;;5020778;28;93492;-78
2023/12/20 10:35:10;;;;;;;7.22;1.60;;;;;;;;;;5018365;28;92536;-78
2023/12/20 10:37:37;;;;;;;5.43;1.33;;;;;;;;;;5021564;27;92704;-79
2023/12/20 10:40:05;;;;;;;6.30;1.42;;;;;;;;;;5009482;27;93068;-79
2023/12/20 10:42:33;;;;;;;4.90;1.30;;;;;;;;;;4985335;28;91478;-77
2023/12/20 10:45:00;;;;;;;5.93;1.40;;;;;;;;;;5000039;28;92245;-76
2023/12/20 10:47:27;;;;;;;5.22;1.48;;;;;;;;;;5027845;28;95529;-79
2023/12/20 10:49:54;;;;;;;;;;;;;;;;;;5006398;27;94626;-78
2023/12/20 10:52:22;;;;;;;6.10;1.48;;;;;;;;;;5000900;27;109278;-78
2023/12/20 10:54:49;;;;;;;8.05;1.60;;;;;;;;;;5007100;28;92387;-77
2023/12/20 10:57:18;;;;;;;6.63;1.48;;;;;;;;;;5008554;28;94394;-77
2023/12/20 10:59:47;;;;;;;5.03;1.58;;;;;;;;;;5012764;28;93058;-77
2023/12/20 11:02:16;;;;;;;6.22;1.38;;;;;;;;;;5019426;27;92303;-78
2023/12/20 11:05:01;;;;;;;4.05;1.33;;;;;;;;;;5035441;28;92605;-77
2023/12/20 11:07:32;;;;;;;7.53;1.60;;;;;;;;;;5027817;27;94421;-77
2023/12/20 11:10:01;;;;;;;6.80;1.42;;;;;;;;;;5004146;28;92045;-78
2023/12/20 11:12:46;;;;;;;4.93;1.30;;;;;;;;;;5002690;28;96581;-77
2023/12/20 11:15:14;;;;;;;8.02;1.55;;;;;;;;;;5008775;28;95238;-78
2023/12/20 11:17:40;;;;;;;7.22;1.80;;;;;;;;;;5006181;28;94751;-78
2023/12/20 11:20:10;;;;;;;5.35;1.45;;;;;;;;;;4998493;28;95762;-78
2023/12/20 11:22:38;;;;;;;5.38;1.45;;;;;;;;;;5018789;28;92534;-78
2023/12/20 11:25:08;;;;;;;6.35;1.40;;;;;;;;;;4993317;28;92635;-77
2023/12/20 11:27:35;;;;;;;3.55;1.10;;;;;;;;;;5008067;28;93894;-78
2023/12/20 11:30:09;;;;;;;6.28;1.48;;;;;;;;;;5010918;28;92333;-77
2023/12/20 11:32:36;;;;;;;7.05;1.45;;;;;;;;;;5001024;28;92730;-78
2023/12/20 11:35:08;;;;;;;5.60;1.33;;;;;;;;;;5008430;28;93115;-78
2023/12/20 11:37:36;;;;;;;5.07;1.25;;;;;;;;;;5020603;28;92568;-78
2023/12/20 11:40:07;;;;;;;4.72;1.33;;;;;;;;;;5016719;27;95135;-78
2023/12/20 11:42:40;;;;;;;6.40;1.27;;;;;;;;;;5001894;28;92244;-78
2023/12/20 11:45:10;;;;;;;5.53;1.58;;;;;;;;;;4996413;28;95462;-78
2023/12/20 11:47:37;;;;;;;5.53;1.35;;;;;;;;;;5006382;28;92816;-78
2023/12/20 11:50:04;;;;;;;6.07;1.23;;;;;;;;;;4997536;28;92693;-79
2023/12/20 11:52:31;;;;;;;5.53;1.33;;;;;;;;;;4998885;28;92587;-77
2023/12/20 11:54:58;;;;;;;3.53;1.20;;;;;;;;;;5007000;28;93344;-77
2023/12/20 11:57:25;;;;;;;5.00;1.25;;;;;;;;;;5012678;28;91469;-78
2023/12/20 11:59:54;;;;;;;6.40;1.30;;;;;;;;;;4998157;28;94988;-77
2023/12/20 12:02:20;;;;;;;4.78;1.33;;;;;;;;;;4998038;28;93074;-78
2023/12/20 12:04:48;;;;;;;5.05;1.30;;;;;;;;;;4988129;28;94519;-78
2023/12/20 12:07:15;;;;;;;4.88;1.50;;;;;;;;;;5002711;28;93198;-78
2023/12/20 12:09:42;;;;;;;5.40;1.35;;;;;;;;;;5001329;28;92638;-79
2023/12/20 12:12:09;;;;;;;4.82;1.40;;;;;;;;;;5006031;27;92605;-79
2023/12/20 12:14:40;;;;;;;5.88;1.30;;;;;;;;;;5001240;28;95386;-77
2023/12/20 12:17:06;;;;;;;;;;;;;;;;;;5012928;28;92160;-79
2023/12/20 12:19:35;;;;;;;4.65;1.27;;;;;;;;;;5014778;28;92389;-78
2023/12/20 12:22:08;;;;;;;5.28;1.33;;;;;;;;;;5003464;28;91632;-78
2023/12/20 12:24:37;;;;;;;6.35;1.40;;;;;;;;;;5017902;28;92308;-78
2023/12/20 12:27:06;;;;;;;5.55;1.20;;;;;;;;;;5002197;28;92232;-78
2023/12/20 12:29:33;;;;;;;6.93;1.33;;;;;;;;;;4999505;28;94700;-78
2023/12/20 12:32:00;;;;;;;4.70;1.20;;;;;;;;;;5001378;28;94754;-78
2023/12/20 12:34:29;;;;;;;4.35;1.13;;;;;;;;;;5018658;28;97564;-79
2023/12/20 12:36:57;;;;;;;4.88;1.10;;;;;;;;;;5001067;28;92070;-78
2023/12/20 12:39:25;;;;;;;;;;;;;;;;;;5005795;28;92710;-79
2023/12/20 12:41:51;;;;;;;4.97;1.30;;;;;;;;;;5019090;28;92157;-77
2023/12/20 12:44:18;;;;;;;5.20;1.33;;;;;;;;;;5036771;27;94727;-78
2023/12/20 12:46:50;;;;;;;4.93;1.20;;;;;;;;;;5020846;28;94485;-80
2023/12/20 12:49:17;;;;;;;5.07;1.17;;;;;;;;;;5045430;27;92240;-78
2023/12/20 12:51:44;;;;;;;6.30;1.27;;;;;;;;;;5008050;27;92289;-78
2023/12/20 12:54:13;;;;;;;4.65;1.10;;;;;;;;;;5014742;28;95438;-78
2023/12/20 12:56:39;;;;;;;5.68;1.20;;;;;;;;;;5002178;28;92384;-78
2023/12/20 12:59:06;;;;;;;6.65;1.42;;;;;;;;;;5011831;28;92362;-78
2023/12/20 13:01:33;;;;;;;4.18;1.20;;;;;;;;;;5011350;28;92679;-79
2023/12/20 13:04:01;;;;;;;7.22;1.33;;;;;;;;;;5002626;28;92382;-78
2023/12/20 13:06:28;;;;;;;5.75;1.17;;;;;;;;;;5017722;28;98860;-78
2023/12/20 13:08:55;;;;;;;5.25;1.20;;;;;;;;;;5015406;28;92360;-77
2023/12/20 13:11:21;;;;;;;5.55;1.35;;;;;;;;;;5001153;28;92745;-78
2023/12/20 13:13:48;;;;;;;4.40;1.20;;;;;;;;;;5000773;28;92712;-77
2023/12/20 13:16:15;;;;;;;5.30;1.35;;;;;;;;;;5000743;28;92592;-77
2023/12/20 13:18:42;;;;;;;5.72;1.17;;;;;;;;;;4999170;28;95419;-78
2023/12/20 13:21:09;;;;;;;6.55;1.13;;;;;;;;;;5000426;28;92589;-78
2023/12/20 13:23:36;;;;;;;4.95;1.30;;;;;;;;;;5005242;28;92142;-78
2023/12/20 13:26:07;;;;;;;4.40;1.20;;;;;;;;;;4999977;28;95145;-78
2023/12/20 13:28:34;;;;;;;5.88;1.10;;;;;;;;;;5000252;28;92127;-77
2023/12/20 13:31:00;;;;;;;5.57;1.30;;;;;;;;;;4996847;28;95073;-78
2023/12/20 13:33:27;;;;;;;5.28;1.30;;;;;;;;;;4993294;28;92429;-78
2023/12/20 13:35:54;;;;;;;5.18;1.10;;;;;;;;;;5000490;28;91846;-78
2023/12/20 13:38:20;;;;;;;4.55;1.10;;;;;;;;;;5011753;28;92102;-78
2023/12/20 13:40:47;;;;;;;3.72;1.10;;;;;;;;;;4988128;28;92812;-78
2023/12/20 13:43:14;;;;;;;5.32;1.15;;;;;;;;;;5000683;28;94614;-78
2023/12/20 13:45:41;;;;;;;5.32;1.23;;;;;;;;;;5002969;28;97261;-78
2023/12/20 13:48:08;;;;;;;3.35;1.20;;;;;;;;;;4981930;28;92331;-78
2023/12/20 13:50:34;;;;;;;5.20;1.20;;;;;;;;;;4981655;28;95393;-77
2023/12/20 13:53:04;;;;;;;3.28;1.08;;;;;;;;;;5006141;28;92265;-78
2023/12/20 13:55:30;;;;;;;6.38;1.30;;;;;;;;;;5004180;28;92444;-77
2023/12/20 13:57:57;;;;;;;5.20;1.20;;;;;;;;;;4998008;28;92218;-77
2023/12/20 14:00:24;;;;;;;4.55;1.08;;;;;;;;;;4995583;28;93833;-77
2023/12/20 14:02:51;;;;;;;4.18;1.10;;;;;;;;;;4989007;28;92056;-77
2023/12/20 14:05:17;;;;;;;6.03;1.40;;;;;;;;;;5000906;28;92894;-79
2023/12/20 14:07:45;;;;;;;5.93;1.10;;;;;;;;;;5001139;28;95100;-77
2023/12/20 14:10:13;;;;;;;3.90;1.10;;;;;;;;;;5000179;28;95145;-78
2023/12/20 14:12:40;;;;;;;;;;;;;;;;;;5012658;28;99092;-77
2023/12/20 14:15:11;;;;;;;4.13;1.00;;;;;;;;;;5042368;27;102659;-77
2023/12/20 14:17:38;;;;;;;5.00;1.38;;;;;;;;;;5040030;28;93266;-78
2023/12/20 14:20:06;;;;;;;4.55;1.10;;;;;;;;;;5023113;27;93419;-78
2023/12/20 14:22:37;;;;;;;4.10;1.17;;;;;;;;;;5015314;28;92156;-78
2023/12/20 14:25:03;;;;;;;4.38;1.25;;;;;;;;;;5010110;28;92985;-78
2023/12/20 14:27:30;;;;;;;4.50;1.10;;;;;;;;;;5008223;27;92332;-78
2023/12/20 14:29:57;;;;;;;5.80;1.20;;;;;;;;;;5018418;28;91930;-79
2023/12/20 14:32:24;;;;;;;4.80;1.25;;;;;;;;;;4998777;28;96639;-78
2023/12/20 14:34:51;;;;;;;5.20;1.17;;;;;;;;;;5000701;28;92404;-78
2023/12/20 14:37:17;;;;;;;3.10;0.90;;;;;;;;;;5001229;28;92483;-79
2023/12/20 14:39:44;;;;;;;3.50;0.95;;;;;;;;;;4992532;28;95132;-78
2023/12/20 14:42:13;;;;;;;4.78;1.13;;;;;;;;;;5018769;27;92757;-78
2023/12/20 14:44:40;;;;;;;4.20;1.20;;;;;;;;;;5018636;28;93321;-79
2023/12/20 14:47:07;;;;;;;4.53;1.20;;;;;;;;;;5020357;27;93970;-78